createdAt,value
2022-12-06T00:01:23.371Z,27.07
2022-12-06T00:03:57.222Z,26.73
2022-12-06T00:06:30.179Z,27.57
2022-12-06T00:08:57.321Z,27.63
2022-12-06T00:11:27.714Z,29.30
2022-12-06T00:13:55.586Z,28.10
2022-12-06T00:16:22.685Z,27.30
2022-12-06T00:18:52.017Z,28.47
2022-12-06T00:21:23.476Z,28.07
2022-12-06T00:24:00.037Z,27.27
2022-12-06T00:26:26.930Z,29.43
2022-12-06T00:28:54.782Z,29.00
2022-12-06T00:31:22.238Z,28.33
2022-12-06T00:33:49.040Z,28.87
2022-12-06T00:36:20.243Z,29.20
2022-12-06T00:38:49.320Z,28.73
2022-12-06T00:41:27.165Z,29.13
2022-12-06T00:43:54.026Z,29.40
2022-12-06T00:46:22.680Z,29.60
2022-12-06T00:48:49.509Z,29.67
2022-12-06T00:51:16.839Z,29.57
2022-12-06T00:53:46.398Z,29.83
2022-12-06T00:56:13.225Z,30.23
2022-12-06T00:58:40.048Z,29.57
2022-12-06T01:01:09.235Z,29.67
2022-12-06T01:03:38.865Z,30.73
2022-12-06T01:06:06.994Z,31.80
2022-12-06T01:08:33.976Z,29.23
2022-12-06T01:11:02.889Z,29.80
2022-12-06T01:13:29.611Z,29.50
2022-12-06T01:16:06.480Z,29.90
2022-12-06T01:18:33.266Z,30.23
2022-12-06T01:21:07.212Z,30.20
2022-12-06T01:23:34.067Z,30.43
2022-12-06T01:26:05.743Z,31.50
2022-12-06T01:28:32.504Z,29.83
2022-12-06T01:30:59.407Z,30.97
2022-12-06T01:33:26.564Z,29.17
2022-12-06T01:35:53.303Z,30.53
2022-12-06T01:38:20.060Z,30.17
2022-12-06T01:40:47.530Z,30.07
2022-12-06T01:43:38.957Z,29.03
2022-12-06T01:46:24.616Z,31.03
2022-12-06T01:48:54.168Z,31.77
2022-12-06T01:51:20.860Z,30.03
2022-12-06T01:53:48.329Z,29.73
2022-12-06T01:56:15.186Z,30.33
2022-12-06T01:58:44.372Z,29.20
2022-12-06T02:01:17.530Z,30.47
2022-12-06T02:03:48.152Z,30.73
2022-12-06T02:06:17.738Z,30.70
2022-12-06T02:08:49.638Z,29.67
2022-12-06T02:11:18.393Z,30.07
2022-12-06T02:13:47.264Z,29.40
2022-12-06T02:16:26.752Z,29.90
2022-12-06T02:18:59.826Z,29.57
2022-12-06T02:21:38.962Z,30.73
2022-12-06T02:24:30.237Z,30.10
2022-12-06T02:27:21.025Z,29.63
2022-12-06T02:30:00.111Z,29.73
2022-12-06T02:32:54.813Z,28.93
2022-12-06T02:35:46.435Z,30.40
2022-12-06T02:38:21.157Z,28.37
2022-12-06T02:40:57.526Z,30.17
2022-12-06T02:43:27.974Z,29.70
2022-12-06T02:45:56.468Z,28.23
2022-12-06T02:48:23.486Z,31.17
2022-12-06T02:50:55.134Z,30.33
2022-12-06T02:53:22.258Z,29.90
2022-12-06T02:55:49.024Z,28.77
2022-12-06T02:58:18.014Z,28.50
2022-12-06T03:00:50.896Z,30.30
2022-12-06T03:03:28.084Z,28.90
2022-12-06T03:06:03.954Z,28.37
2022-12-06T03:08:39.282Z,28.93
2022-12-06T03:11:05.980Z,28.80
2022-12-06T03:14:02.419Z,30.00
2022-12-06T03:16:49.076Z,28.50
2022-12-06T03:19:27.000Z,29.93
2022-12-06T03:22:14.845Z,28.13
2022-12-06T03:24:42.009Z,29.17
2022-12-06T03:27:16.259Z,29.53
2022-12-06T03:29:45.839Z,29.97
2022-12-06T03:32:13.362Z,29.40
2022-12-06T03:34:44.792Z,29.77
2022-12-06T03:37:17.145Z,28.67
2022-12-06T03:39:47.665Z,30.10
2022-12-06T03:42:14.357Z,29.80
2022-12-06T03:44:41.122Z,27.57
2022-12-06T03:47:30.945Z,27.63
2022-12-06T03:50:01.819Z,29.23
2022-12-06T03:52:29.048Z,29.27
2022-12-06T03:54:57.930Z,28.13
2022-12-06T03:57:26.670Z,28.67
2022-12-06T03:59:53.580Z,27.87
2022-12-06T04:02:20.288Z,28.23
2022-12-06T04:04:49.350Z,27.63
2022-12-06T04:07:21.288Z,29.60
2022-12-06T04:09:56.732Z,28.40
2022-12-06T04:12:44.506Z,28.03
2022-12-06T04:15:13.726Z,27.30
2022-12-06T04:17:59.429Z,26.70
2022-12-06T04:20:26.620Z,27.70
2022-12-06T04:23:08.239Z,26.43
2022-12-06T04:25:35.956Z,27.07
2022-12-06T04:28:21.748Z,28.30
2022-12-06T04:31:07.213Z,27.40
2022-12-06T04:33:52.397Z,28.13
2022-12-06T04:36:37.440Z,28.07
2022-12-06T04:39:08.863Z,28.00
2022-12-06T04:41:56.727Z,27.70
2022-12-06T04:44:25.719Z,28.07
2022-12-06T04:46:52.552Z,27.93
2022-12-06T04:49:19.344Z,27.37
2022-12-06T04:51:48.480Z,27.77
2022-12-06T04:54:15.198Z,27.47
2022-12-06T04:56:44.026Z,26.47
2022-12-06T04:59:10.761Z,26.67
2022-12-06T05:01:39.805Z,27.23
2022-12-06T05:04:06.712Z,26.83
2022-12-06T05:06:33.545Z,27.90
2022-12-06T05:09:00.260Z,26.03
2022-12-06T05:11:26.952Z,27.83
2022-12-06T05:13:53.663Z,26.47
2022-12-06T05:16:20.450Z,25.07
2022-12-06T05:18:49.670Z,25.73
2022-12-06T05:21:21.023Z,25.87
2022-12-06T05:23:50.033Z,25.80
2022-12-06T05:26:20.800Z,25.27
2022-12-06T05:28:50.087Z,24.00
2022-12-06T05:31:19.460Z,25.63
2022-12-06T05:33:46.461Z,25.13
2022-12-06T05:36:19.033Z,23.87
2022-12-06T05:38:51.550Z,23.47
2022-12-06T05:41:19.468Z,25.10
2022-12-06T05:43:46.190Z,24.03
2022-12-06T05:46:17.643Z,24.53
2022-12-06T05:48:44.909Z,24.07
2022-12-06T05:51:11.813Z,23.63
2022-12-06T05:53:41.420Z,23.07
2022-12-06T05:56:09.854Z,23.80
2022-12-06T05:58:36.693Z,23.97
2022-12-06T06:01:03.663Z,22.80
2022-12-06T06:03:30.504Z,22.90
2022-12-06T06:05:59.275Z,23.00
2022-12-06T06:08:26.767Z,22.00
2022-12-06T06:10:53.627Z,23.57
2022-12-06T06:13:23.138Z,24.20
2022-12-06T06:15:50.085Z,25.53
2022-12-06T06:18:17.652Z,23.90
2022-12-06T06:20:51.531Z,23.90
2022-12-06T06:23:18.382Z,24.07
2022-12-06T06:25:45.109Z,22.30
2022-12-06T06:28:11.888Z,23.40
2022-12-06T06:30:40.929Z,23.33
2022-12-06T06:33:07.889Z,23.13
2022-12-06T06:35:34.705Z,23.23
2022-12-06T06:38:01.503Z,23.23
2022-12-06T06:40:31.109Z,20.87
2022-12-06T06:43:17.946Z,22.37
2022-12-06T06:45:46.136Z,22.37
2022-12-06T06:48:15.063Z,21.67
2022-12-06T06:50:41.813Z,20.73
2022-12-06T06:53:08.715Z,22.17
2022-12-06T06:55:36.273Z,21.50
2022-12-06T06:58:05.785Z,20.90
2022-12-06T07:00:33.035Z,20.90
2022-12-06T07:02:59.939Z,21.23
2022-12-06T07:05:27.292Z,21.63
2022-12-06T07:07:54.577Z,20.83
2022-12-06T07:10:21.448Z,22.53
2022-12-06T07:12:54.206Z,22.17
2022-12-06T07:15:25.710Z,21.07
2022-12-06T07:17:54.952Z,20.27
2022-12-06T07:20:24.160Z,19.60
2022-12-06T07:22:50.859Z,17.97
2022-12-06T07:25:19.764Z,18.27
2022-12-06T07:27:46.490Z,18.50
2022-12-06T07:30:17.378Z,18.57
2022-12-06T07:32:45.567Z,18.27
2022-12-06T07:35:12.302Z,18.17
2022-12-06T07:37:42.502Z,19.07
2022-12-06T07:40:14.862Z,18.37
2022-12-06T07:43:00.104Z,18.20
2022-12-06T07:45:26.885Z,18.27
2022-12-06T07:47:53.587Z,19.10
2022-12-06T07:50:21.507Z,18.17
2022-12-06T07:52:49.112Z,17.63
2022-12-06T07:55:16.168Z,19.87
2022-12-06T07:57:44.045Z,18.83
2022-12-06T08:00:15.254Z,19.57
2022-12-06T08:02:42.156Z,20.20
2022-12-06T08:05:11.632Z,19.77
2022-12-06T08:07:38.682Z,21.73
2022-12-06T08:10:06.287Z,21.33
2022-12-06T08:12:33.125Z,22.50
2022-12-06T08:15:00.284Z,23.20
2022-12-06T08:17:30.076Z,25.20
2022-12-06T08:20:01.596Z,23.77
2022-12-06T08:22:28.999Z,23.10
2022-12-06T08:24:55.708Z,25.43
2022-12-06T08:27:24.701Z,25.53
2022-12-06T08:29:53.951Z,25.63
2022-12-06T08:32:20.769Z,25.60
2022-12-06T08:34:49.734Z,29.00
2022-12-06T08:37:16.460Z,28.73
2022-12-06T08:39:43.180Z,28.17
2022-12-06T08:42:14.615Z,29.93
2022-12-06T08:44:41.346Z,28.73
2022-12-06T08:47:08.106Z,29.93
2022-12-06T08:49:34.838Z,28.83
2022-12-06T08:52:06.010Z,28.77
2022-12-06T08:54:35.196Z,29.37
2022-12-06T08:57:04.551Z,29.67
2022-12-06T08:59:33.495Z,28.60
2022-12-06T09:02:00.416Z,29.53
2022-12-06T09:04:32.153Z,28.03
2022-12-06T09:07:07.413Z,28.97
2022-12-06T09:09:37.164Z,27.03
2022-12-06T09:12:03.940Z,28.20
2022-12-06T09:14:30.961Z,27.40
2022-12-06T09:17:00.159Z,27.30
2022-12-06T09:19:26.874Z,28.33
2022-12-06T09:21:53.783Z,26.43
2022-12-06T09:24:20.616Z,26.73
2022-12-06T09:26:47.494Z,27.77
2022-12-06T09:29:16.886Z,28.73
2022-12-06T09:31:43.632Z,28.57
2022-12-06T09:34:12.980Z,29.13
2022-12-06T09:36:56.118Z,27.77
2022-12-06T09:39:31.274Z,27.33
2022-12-06T09:42:33.005Z,29.17
2022-12-06T09:45:27.016Z,29.97
2022-12-06T09:48:02.742Z,30.40
2022-12-06T09:50:37.159Z,29.60
2022-12-06T09:53:22.336Z,31.63
2022-12-06T09:56:06.267Z,30.50
2022-12-06T09:58:38.404Z,29.53
2022-12-06T10:01:36.893Z,29.40
2022-12-06T10:04:24.786Z,30.37
2022-12-06T10:07:07.448Z,28.53
2022-12-06T10:09:47.682Z,28.67
2022-12-06T10:12:39.620Z,27.93
2022-12-06T10:15:21.292Z,26.87
2022-12-06T10:18:16.246Z,28.60
2022-12-06T10:21:01.647Z,30.87
2022-12-06T10:23:38.603Z,29.83
2022-12-06T10:26:19.311Z,30.73
2022-12-06T10:28:51.316Z,30.67
2022-12-06T10:31:30.861Z,31.00
2022-12-06T10:34:02.890Z,32.10
2022-12-06T10:37:01.103Z,32.03
2022-12-06T10:39:47.291Z,32.60
2022-12-06T10:42:27.127Z,31.83
2022-12-06T10:45:03.200Z,32.20
2022-12-06T10:47:36.497Z,31.13
2022-12-06T10:50:21.382Z,30.47
2022-12-06T10:52:57.284Z,30.43
2022-12-06T10:55:58.870Z,32.90
2022-12-06T10:58:46.474Z,33.30
2022-12-06T11:01:25.617Z,32.17
2022-12-06T11:04:09.861Z,32.40
2022-12-06T11:06:54.330Z,33.47
2022-12-06T11:09:31.511Z,32.87
2022-12-06T11:11:58.279Z,31.43
2022-12-06T11:14:30.667Z,32.10
2022-12-06T11:17:00.901Z,32.77
2022-12-06T11:19:46.698Z,34.30
2022-12-06T11:22:22.313Z,34.40
2022-12-06T11:25:00.298Z,33.47
2022-12-06T11:27:33.303Z,34.37
2022-12-06T11:30:02.817Z,32.10
2022-12-06T11:32:31.916Z,32.67
2022-12-06T11:34:59.154Z,30.23
2022-12-06T11:37:30.545Z,31.40
2022-12-06T11:40:05.643Z,30.20
2022-12-06T11:42:32.418Z,30.83
2022-12-06T11:45:18.277Z,30.57
2022-12-06T11:47:45.371Z,28.87
2022-12-06T11:50:17.189Z,30.87
2022-12-06T11:52:50.358Z,29.63
2022-12-06T11:55:30.351Z,29.80
2022-12-06T11:58:04.112Z,30.37
2022-12-06T12:00:34.815Z,30.33
2022-12-06T12:03:01.716Z,30.57
2022-12-06T12:05:38.722Z,31.53
2022-12-06T12:08:07.460Z,33.00
2022-12-06T12:10:38.585Z,33.47
2022-12-06T12:13:30.038Z,32.37
2022-12-06T12:16:17.874Z,33.33
2022-12-06T12:19:29.544Z,33.10
2022-12-06T12:21:56.914Z,34.50
2022-12-06T12:27:42.335Z,36.03
2022-12-06T12:30:27.365Z,37.50
2022-12-06T12:33:06.192Z,37.70
2022-12-06T12:35:33.596Z,36.67
2022-12-06T12:38:03.983Z,38.70
2022-12-06T12:40:38.699Z,40.10
2022-12-06T12:43:21.724Z,39.67
2022-12-06T12:46:08.388Z,38.33
2022-12-06T12:48:38.239Z,37.90
2022-12-06T12:51:07.103Z,36.83
2022-12-06T12:53:37.625Z,40.17
2022-12-06T12:56:13.914Z,39.90
2022-12-06T12:58:44.253Z,40.30
2022-12-06T13:01:39.060Z,38.00
2022-12-06T13:04:43.968Z,40.37
2022-12-06T13:07:27.660Z,41.17
2022-12-06T13:09:58.115Z,41.70
2022-12-06T13:12:45.012Z,41.77
2022-12-06T13:15:34.053Z,39.57
2022-12-06T13:18:28.038Z,43.57
2022-12-06T13:20:57.603Z,44.47
2022-12-06T13:23:26.760Z,44.40
2022-12-06T13:26:14.229Z,44.33
2022-12-06T13:28:44.989Z,43.57
2022-12-06T13:31:18.591Z,40.97
2022-12-06T13:34:00.560Z,43.13
2022-12-06T13:36:27.486Z,40.83
2022-12-06T13:38:56.159Z,40.60
2022-12-06T13:41:53.433Z,41.77
2022-12-06T13:44:41.771Z,41.03
2022-12-06T13:47:38.595Z,42.17
2022-12-06T13:50:17.526Z,41.33
2022-12-06T13:52:44.320Z,39.80
2022-12-06T13:55:26.187Z,40.13
2022-12-06T13:57:56.120Z,42.10
2022-12-06T14:00:49.183Z,41.17
2022-12-06T14:03:19.134Z,39.60
2022-12-06T14:06:01.104Z,40.00
2022-12-06T14:08:43.646Z,42.47
2022-12-06T14:11:16.137Z,41.70
2022-12-06T14:14:01.341Z,40.83
2022-12-06T14:16:32.926Z,39.83
2022-12-06T14:19:22.505Z,41.03
2022-12-06T14:22:03.523Z,38.63
2022-12-06T14:24:35.378Z,38.83
2022-12-06T14:27:07.987Z,41.03
2022-12-06T14:29:34.736Z,39.67
2022-12-06T14:32:01.524Z,41.80
2022-12-06T14:34:30.255Z,42.73
2022-12-06T14:36:59.935Z,41.17
2022-12-06T14:39:31.066Z,42.03
2022-12-06T14:42:38.466Z,40.50
2022-12-06T14:45:06.870Z,41.57
2022-12-06T14:47:36.169Z,41.17
2022-12-06T14:50:21.322Z,38.60
2022-12-06T14:52:58.719Z,37.27
2022-12-06T14:55:25.865Z,38.20
2022-12-06T14:57:57.795Z,39.13
2022-12-06T15:00:28.126Z,39.43
2022-12-06T15:02:58.956Z,39.13
2022-12-06T15:05:40.059Z,37.33
2022-12-06T15:08:31.087Z,38.70
2022-12-06T15:11:00.896Z,38.40
2022-12-06T15:13:28.158Z,38.23
2022-12-06T15:16:09.825Z,36.80
2022-12-06T15:18:57.009Z,36.10
2022-12-06T15:21:23.815Z,34.43
2022-12-06T15:23:54.293Z,35.37
2022-12-06T15:26:21.723Z,37.30
2022-12-06T15:28:50.673Z,36.47
2022-12-06T15:31:21.248Z,35.57
2022-12-06T15:33:50.500Z,34.27
2022-12-06T15:36:23.964Z,33.43
2022-12-06T15:38:53.343Z,33.13
2022-12-06T15:41:22.499Z,33.50
2022-12-06T15:43:49.521Z,32.53
2022-12-06T15:46:24.136Z,32.10
2022-12-06T15:48:53.569Z,33.87
2022-12-06T15:51:24.877Z,31.83
2022-12-06T15:53:51.687Z,30.97
2022-12-06T15:56:20.255Z,32.37
2022-12-06T15:58:47.374Z,30.83
2022-12-06T16:01:34.622Z,32.40
2022-12-06T16:04:01.545Z,30.47
2022-12-06T16:06:31.066Z,31.53
2022-12-06T16:09:00.012Z,30.57
2022-12-06T16:11:29.015Z,29.90
2022-12-06T16:13:58.078Z,29.83
2022-12-06T16:16:24.896Z,29.63
2022-12-06T16:18:51.881Z,28.50
2022-12-06T16:21:30.858Z,26.87
2022-12-06T16:24:16.732Z,29.00
2022-12-06T16:26:45.074Z,28.13
2022-12-06T16:29:24.950Z,26.93
2022-12-06T16:31:52.887Z,26.37
2022-12-06T16:34:22.249Z,26.30
2022-12-06T16:36:58.932Z,27.87
2022-12-06T16:39:30.842Z,26.70
2022-12-06T16:41:57.706Z,26.13
2022-12-06T16:44:24.543Z,24.23
2022-12-06T16:46:53.872Z,23.70
2022-12-06T16:52:15.160Z,22.40
2022-12-06T16:54:44.473Z,21.30
2022-12-06T16:57:13.779Z,22.60
2022-12-06T16:59:42.508Z,22.30
2022-12-06T17:02:27.627Z,22.67
2022-12-06T17:04:57.243Z,22.57
2022-12-06T17:07:26.208Z,21.77
2022-12-06T17:09:53.270Z,22.50
2022-12-06T17:12:22.622Z,20.60
2022-12-06T17:14:49.512Z,21.43
2022-12-06T17:17:17.405Z,22.30
2022-12-06T17:19:44.427Z,22.23
2022-12-06T17:22:11.583Z,23.43
2022-12-06T17:24:38.505Z,22.80
2022-12-06T17:27:09.139Z,22.00
2022-12-06T17:29:38.561Z,22.73
2022-12-06T17:32:05.695Z,22.90
2022-12-06T17:34:32.585Z,23.20
2022-12-06T17:36:59.639Z,21.73
2022-12-06T17:39:26.474Z,22.67
2022-12-06T17:42:11.761Z,22.40
2022-12-06T17:44:39.873Z,23.80
2022-12-06T17:47:06.938Z,22.77
2022-12-06T17:49:36.026Z,22.63
2022-12-06T17:52:05.745Z,21.90
2022-12-06T17:54:33.870Z,22.57
2022-12-06T17:57:00.631Z,23.13
2022-12-06T17:59:29.427Z,22.63
2022-12-06T18:02:18.001Z,21.80
2022-12-06T18:04:45.809Z,22.13
2022-12-06T18:07:13.060Z,21.80
2022-12-06T18:09:39.915Z,21.30
2022-12-06T18:12:09.594Z,21.27
2022-12-06T18:14:38.860Z,23.53
2022-12-06T18:17:05.717Z,22.33
2022-12-06T18:19:33.562Z,22.13
2022-12-06T18:22:00.353Z,22.53
2022-12-06T18:24:33.550Z,22.90
2022-12-06T18:27:04.767Z,22.43
2022-12-06T18:29:31.585Z,22.50
2022-12-06T18:31:58.403Z,22.83
2022-12-06T18:34:25.264Z,22.77
2022-12-06T18:36:54.152Z,22.87
2022-12-06T18:39:24.768Z,23.53
2022-12-06T18:41:54.436Z,21.93
2022-12-06T18:44:21.407Z,27.80
2022-12-06T18:46:48.231Z,25.30
2022-12-06T18:49:15.034Z,24.00
2022-12-06T18:51:41.902Z,22.97
2022-12-06T18:54:08.891Z,23.80
2022-12-06T18:56:35.887Z,23.77
2022-12-06T18:59:06.350Z,23.63
2022-12-06T19:01:34.902Z,22.87
2022-12-06T19:04:03.220Z,22.27
2022-12-06T19:06:34.213Z,22.40
2022-12-06T19:09:03.625Z,21.67
2022-12-06T19:11:30.373Z,22.80
2022-12-06T19:14:00.091Z,22.17
2022-12-06T19:16:41.037Z,22.47
2022-12-06T19:19:16.186Z,21.73
2022-12-06T19:21:45.761Z,22.63
2022-12-06T19:24:13.428Z,22.20
2022-12-06T19:26:40.475Z,22.83
2022-12-06T19:29:07.642Z,22.07
2022-12-06T19:31:34.421Z,21.93
2022-12-06T19:34:01.201Z,22.90
2022-12-06T19:36:31.412Z,21.70
2022-12-06T19:38:59.556Z,22.40
2022-12-06T19:41:26.475Z,21.63
2022-12-06T19:44:11.888Z,21.33
2022-12-06T19:46:42.653Z,21.60
2022-12-06T19:49:12.064Z,21.67
2022-12-06T19:51:40.119Z,22.73
2022-12-06T19:54:10.613Z,21.47
2022-12-06T19:56:39.887Z,21.97
2022-12-06T19:59:15.309Z,22.10
2022-12-06T20:01:46.574Z,22.23
2022-12-06T20:04:23.021Z,23.67
2022-12-06T20:06:50.540Z,23.80
2022-12-06T20:09:20.769Z,23.57
2022-12-06T20:12:01.920Z,23.07
2022-12-06T20:14:35.041Z,24.20
2022-12-06T20:17:04.929Z,23.53
2022-12-06T20:19:31.654Z,24.07
2022-12-06T20:21:58.385Z,25.67
2022-12-06T20:24:25.131Z,23.43
2022-12-06T20:26:54.942Z,25.60
2022-12-06T20:29:25.094Z,23.13
2022-12-06T20:31:54.921Z,24.63
2022-12-06T20:34:24.020Z,23.17
2022-12-06T20:36:53.313Z,24.30
2022-12-06T20:39:21.889Z,23.77
2022-12-06T20:41:51.325Z,23.07
2022-12-06T20:44:18.403Z,21.37
2022-12-06T20:46:49.832Z,22.17
2022-12-06T20:49:19.093Z,23.73
2022-12-06T20:51:51.277Z,24.77
2022-12-06T20:54:22.092Z,25.30
2022-12-06T20:56:51.991Z,25.67
2022-12-06T20:59:23.775Z,25.40
2022-12-06T21:01:52.637Z,26.30
2022-12-06T21:04:19.416Z,24.40
2022-12-06T21:06:48.591Z,24.63
2022-12-06T21:09:15.459Z,25.00
2022-12-06T21:11:42.220Z,25.33
2022-12-06T21:14:09.943Z,23.17
2022-12-06T21:16:38.268Z,24.67
2022-12-06T21:19:12.599Z,22.90
2022-12-06T21:21:40.829Z,23.43
2022-12-06T21:24:14.708Z,22.17
2022-12-06T21:26:41.741Z,22.40
2022-12-06T21:29:13.876Z,23.70
2022-12-06T21:31:40.667Z,22.17
2022-12-06T21:34:07.478Z,22.30
2022-12-06T21:36:36.931Z,24.40
2022-12-06T21:39:03.835Z,22.87
2022-12-06T21:41:30.651Z,22.97
2022-12-06T21:43:59.532Z,22.97
2022-12-06T21:46:29.083Z,22.37
2022-12-06T21:48:59.667Z,23.57
2022-12-06T21:51:27.999Z,23.70
2022-12-06T21:53:55.898Z,23.97
2022-12-06T21:56:24.390Z,24.43
2022-12-06T21:58:53.391Z,23.80
2022-12-06T22:01:24.863Z,24.83
2022-12-06T22:03:52.896Z,24.07
2022-12-06T22:06:19.697Z,24.63
2022-12-06T22:08:49.176Z,23.33
2022-12-06T22:11:17.602Z,24.27
2022-12-06T22:13:44.636Z,23.03
2022-12-06T22:16:14.268Z,22.87
2022-12-06T22:18:45.794Z,22.57
2022-12-06T22:21:18.114Z,23.17
2022-12-06T22:23:44.948Z,23.07
2022-12-06T22:26:14.685Z,23.10
2022-12-06T22:28:44.210Z,23.50
2022-12-06T22:31:16.000Z,23.83
2022-12-06T22:33:45.367Z,23.20
2022-12-06T22:36:14.579Z,22.80
2022-12-06T22:38:41.429Z,24.17
2022-12-06T22:41:08.889Z,24.27
2022-12-06T22:43:40.434Z,23.77
2022-12-06T22:46:14.803Z,24.27
2022-12-06T22:48:44.168Z,24.23
2022-12-06T22:51:26.494Z,24.30
2022-12-06T22:53:56.887Z,24.97
2022-12-06T22:56:24.123Z,25.60
2022-12-06T22:58:56.651Z,24.47
2022-12-06T23:01:26.970Z,24.50
2022-12-06T23:03:53.922Z,25.00
2022-12-06T23:06:22.428Z,25.27
2022-12-06T23:08:49.317Z,25.83
2022-12-06T23:11:20.894Z,25.00
2022-12-06T23:13:47.741Z,24.20
2022-12-06T23:16:19.110Z,23.90
2022-12-06T23:18:45.973Z,23.00
2022-12-06T23:21:16.339Z,23.80
2022-12-06T23:23:46.034Z,24.27
2022-12-06T23:26:17.219Z,22.83
2022-12-06T23:28:44.183Z,23.33
2022-12-06T23:31:16.126Z,22.03
2022-12-06T23:33:43.319Z,21.87
2022-12-06T23:36:16.347Z,21.37
2022-12-06T23:38:43.226Z,22.40
2022-12-06T23:41:17.146Z,24.80
2022-12-06T23:43:46.180Z,24.17
2022-12-06T23:46:21.973Z,25.00
2022-12-06T23:48:52.505Z,23.10
2022-12-06T23:51:22.671Z,25.43
2022-12-06T23:53:54.030Z,25.00
2022-12-06T23:56:21.559Z,24.97
2022-12-06T23:58:50.267Z,25.43
